Share

Ashland, ME (04737)

Northern Maine Regional At Presque Isle (KPQI) Elev 479 ft | 46.69 °N, 68.04 °W | Change Station

Current weather conditions updated 3 minutes ago

Overcast
Overcast
36 °F
Feels Like 32 °F
N
5
Wind Variable Wind from East
Sunrise 5:43 AM
Sunset 7:31 PM
Moon Waning Gibbous

Today is forecast to be Cooler than yesterday. Light snow early.

Pressure 30.09 in
Visibility 10.0 miles
Clouds Few 3800 ft
Mostly Cloudy 4800 ft
Overcast 5500 ft
Windchill 32 °F
Dew Point 28 °F
Humidity 75%
Rainfall 0.00 in
Snow Depth Not available.
UV 0 out of 16
Pollen 8.20 out of 12
Ozone Good
PM2.5 Good
Flu Activity Widespread
METAR KPQI 190715Z AUTO 10004KT 10SM FEW038 BKN048 OVC055 02/M02 A3009 RMK AO1

More Conditions Fewer Conditions

Pressure 30.09 in
Visibility 10.0 miles
Clouds Few 3800 ft
Mostly Cloudy 4800 ft
Overcast 5500 ft
Windchill 32 °F
Dew Point 28 °F
Humidity 75%
Rainfall 0.00 in
Snow Depth Not available.
UV 0 out of 16
Pollen 8.20 out of 12
Ozone Good
PM2.5 Good
Flu Activity Widespread
METAR KPQI 190715Z AUTO 10004KT 10SM FEW038 BKN048 OVC055 02/M02 A3009 RMK AO1

More Conditions Fewer Conditions

10-Day Weather Forecast

Almanac

Astronomy

Apr. 19, 2014 Rise Set
Actual Time 5:43 AM EDT 7:31 PM EDT
Civil Twilight 5:11 AM EDT 8:03 PM EDT
Nautical Twilight 4:32 AM EDT 8:43 PM EDT
Astronomical Twilight 3:49 AM EDT 9:26 PM EDT
Moon No Moon Rise 8:50 AM EDT
Length of Visible Light 14h 52m
Length of Day
13h 47m
Tomorrow will be 3m 8s longer.
Waning Gibbous, 82% of the Moon is Illuminated
Today
Waning Gibbous
Apr 22
Last Quarter
Apr 29
New
May 6
First Quarter
May 14
Full

Today's Extremes

State Highs State Lows

Community

  • Sunset Silhouettes
    Sunset Silhouettes
  • FL sunset Perico Isle
    FL sunset Perico Isle
  • Cloudy spring view
    Cloudy spring view
  • Old barn
    Old barn
  • What's for Lunch?
    What's for Lunch?

WunderPhotos

Upload Photos

1,702,659 photos uploaded!

WunderBlogs® & News

Nearby

Air Quality

  Air Quality AQ Index Pollutant
Yesterday Good
OZONE
Yesterday Good
PM2.5
Current Good
PM2.5
Current Good
OZONE
Saturday Good
OZONE
Saturday Good
PM2.5
Sunday Good
OZONE
Sunday Good
PM2.5

Snow Depth

Station Depth Elevation
No new snow has been reported.

Coastal Water Temperatures

Place Temperature
No Stations Reporting

Earthquake Activity

City Distance Mag. Time & Date
No recent earthquake activity has been reported nearby.
Minimum magnitude displayed is 2.5.

Nearby Weather Stations

Station Location Temp. Windchill Dew Point Humidity Wind Precip. Elev Updated Type
HADS ST JOHNS RVR AT NINE MILE BRDG NR C, Ashland, ME 33 °F 33 °F - - North  at  - 0.00 in / hr 1037 ft 2:00 AM EDT MADIS
HADS BIG BLACK RIVER NEAR CLAYTON LAK ME, Ashland, ME 32 °F 32 °F - - North  at  - 0.00 in / hr 774 ft 2:00 AM EDT MADIS

Show More Stations Show Fewer Stations

What do you think?

We're not finished. Please let us know what you like, what you don't like, and what you are still missing.